Flight Track Log - Related Links

Times and Time Zones

All times are in EDT time to prevent confusion due to time zone crossing. See the RXA469 flight status page for this flight to view local times or setup timezone preferences in your user account.

Time Position Orientation Groundspeed Altitude Reporting Facility
EDT Latitude Longitude Course Direction KTS MPH feet Rate Location/Type
Thu 02:49:50 AM -34.2492 146.2697 86° East 19,000  Level Aus ATC (Calculated)
Thu 02:50:41 AM -34.2490 146.3379 68° East 19,000 -3,639 Level Aus ATC (Calculated)
Thu 02:52:53 AM -34.2449 146.3500 93° East 198 228 7,900 -3,759 Descending Aus ATC (RADAR)
Thu 02:53:27 AM -34.2464 146.3878 89° East 194 223 8,600 1,146 Climbing Aus ATC (RADAR)
Thu 02:54:22 AM -34.2456 146.4485 88° East 195 224 9,600 1,029 Climbing Aus ATC (RADAR)
Thu 02:55:12 AM -34.2441 146.5061 89° East 205 236 10,400 1,047 Climbing Aus ATC (RADAR)
Thu 02:55:48 AM -34.2433 146.5461 92° East 204 235 11,100 1,036 Climbing Aus ATC (RADAR)
Thu 02:57:02 AM -34.2455 146.6319 89° East 206 237 12,300 985 Climbing Aus ATC (RADAR)
Thu 02:58:02 AM -34.2444 146.7013 90° East 206 237 13,300 939 Climbing Aus ATC (RADAR)
Thu 02:58:57 AM -34.2446 146.7649 94° East 208 239 14,100 867 Climbing Aus ATC (RADAR)
Thu 02:59:32 AM -34.2468 146.8057 88° East 208 239 14,600 825 Climbing Aus ATC (RADAR)
Thu 03:00:17 AM -34.2453 146.8601 92° East 212 244 15,200 675 Climbing Aus ATC (RADAR)
Thu 03:00:52 AM -34.2464 146.9022 89° East 215 247 15,500  Climbing Aus ATC (RADAR)
Thu 03:02:27 AM -34.2447 147.0383 90° East 259 298 15,200 -84 Descending Aus ATC (RADAR)
Thu 03:04:26 AM -34.2432 147.2228 89° East 275 316 15,200  Level Aus ATC (RADAR)
Thu 03:05:56 AM -34.2407 147.3642 90° East 275 316 15,200  Level Aus ATC (RADAR)
Thu 03:06:26 AM -34.2405 147.4112 89° East 275 316 15,200  Level Aus ATC (RADAR)
Thu 03:07:36 AM -34.2395 147.5210 89° East 273 314 15,200  Level Aus ATC (RADAR)
Thu 03:09:11 AM -34.2367 147.6709 89° East 276 318 15,200  Level Aus ATC (RADAR)
Thu 03:10:56 AM -34.2344 147.8378 89° East 279 321 15,200  Level Aus ATC (RADAR)
Thu 03:12:36 AM -34.2320 147.9969 89° East 280 322 15,200  Level Aus ATC (RADAR)
Thu 03:14:01 AM -34.2302 148.1313 89° East 280 322 15,200  Level Aus ATC (RADAR)
Thu 03:15:16 AM -34.2278 148.2508 89° East 280 322 15,200  Level Aus ATC (RADAR)
Thu 03:16:11 AM -34.2260 148.3389 89° East 282 325 15,200  Level Aus ATC (RADAR)
Thu 03:17:15 AM -34.2239 148.4432 89° East 281 323 15,200  Level Aus ATC (RADAR)
Thu 03:17:56 AM -34.2227 148.5076 88° East 282 325 15,200  Level Aus ATC (RADAR)
Thu 03:19:05 AM -34.2202 148.6203 88° East 283 326 15,200  Level Aus ATC (RADAR)
Thu 03:20:20 AM -34.2174 148.7403 88° East 280 322 15,200  Level Aus ATC (RADAR)
Thu 03:20:50 AM -34.2163 148.7885 88° East 280 322 15,200  Level Aus ATC (RADAR)
Thu 03:21:45 AM -34.2143 148.8763 88° East 280 322 15,200  Level Aus ATC (RADAR)
Thu 03:22:20 AM -34.2129 148.9322 88° East 281 323 15,200  Level Aus ATC (RADAR)
Thu 03:23:24 AM -34.2104 149.0361 88° East 282 325 15,200  Level Aus ATC (RADAR)
Thu 03:24:24 AM -34.2077 149.1314 88° East 279 321 15,200  Level Aus ATC (RADAR)
Thu 03:25:24 AM -34.2052 149.2270 88° East 279 321 15,200  Level Aus ATC (RADAR)
Thu 03:25:54 AM -34.2039 149.2750 88° East 281 323 15,200  Level Aus ATC (RADAR)
Thu 03:27:15 AM -34.2004 149.4027 88° East 280 322 15,200  Level Aus ATC (RADAR)
Thu 03:28:34 AM -34.1966 149.5302 88° East 280 322 15,200  Level Aus ATC (RADAR)
Thu 03:29:29 AM -34.1941 149.6178 88° East 279 321 15,200  Level Aus ATC (RADAR)
Thu 03:30:04 AM -34.1925 149.6735 88° East 278 320 15,200 -71 Level Aus ATC (RADAR)
Thu 03:30:54 AM -34.1901 149.7529 88° East 278 320 15,100 -52 Descending Aus ATC (RADAR)
Thu 03:31:59 AM -34.1868 149.8557 88° East 275 316 15,100  Level Aus ATC (RADAR)
Thu 03:32:38 AM -34.1847 149.9192 88° East 277 319 15,100  Level Aus ATC (RADAR)
Thu 03:33:43 AM -34.1812 150.0228 86° East 278 320 15,100  Level Aus ATC (RADAR)
Thu 03:34:48 AM -34.1758 150.1266 74° East 283 326 15,100  Level Aus ATC (RADAR)
Thu 03:35:23 AM -34.1632 150.1807 75° East 280 322 15,100  Level Aus ATC (RADAR)
Thu 03:36:18 AM -34.1435 150.2663 75° East 282 325 15,100 -180 Level Aus ATC (RADAR)
Thu 03:37:03 AM -34.1283 150.3369 76° East 285 328 14,800 -825 Descending Aus ATC (RADAR)
Thu 03:37:38 AM -34.1159 150.3944 75° East 297 342 14,000 -1,371 Descending Aus ATC (RADAR)
Thu 03:38:48 AM -34.0905 150.5129 75° East 302 348 12,400 -1,378 Descending Aus ATC (RADAR)
Thu 03:39:53 AM -34.0674 150.6188 75° East 286 329 10,900 -1,366 Descending Aus ATC (RADAR)
Thu 03:41:13 AM -34.0413 150.7396 75° East 264 304 9,100 -1,244 Descending Aus ATC (RADAR)
Thu 03:42:37 AM -34.0132 150.8653 74° East 267 307 7,500 -1,050 Descending Aus ATC (RADAR)
Thu 03:43:13 AM -34.0008 150.9173 74° East 269 310 7,000 -800 Descending Aus ATC (RADAR)
Thu 03:44:22 AM -33.9763 151.0215 North 267 307 6,100 -480 Descending Aus ATC (RADAR)
Thu 03:46:08 AM -33.8628 151.0391 15° North 242 278 5,600 -533 Descending Aus ATC (RADAR)
Thu 03:47:22 AM -33.7888 151.0637 85° East 227 261 4,500 -895 Descending Aus ATC (RADAR)
Thu 03:48:02 AM -33.7855 151.1084 142° Southeast 210 242 3,900 -900 Descending Aus ATC (RADAR)
Thu 03:49:02 AM -33.8231 151.1432 167° South 159 183 3,000 -1,055 Descending Aus ATC (RADAR)
Thu 03:50:47 AM -33.8889 151.1609 167° South 121 139 1,000 -1,000 Descending Aus ATC (RADAR)
Thu 03:51:32 AM -33.9118 151.1671 167° South 110 127 500 -667 Descending Aus ATC (RADAR)

Login

Don't have an account? Register now (free) for customized features, flight alerts, and more!